createdAt,value
2023-04-21T00:01:46.276Z,3.05
2023-04-21T00:04:13.990Z,2.50
2023-04-21T00:06:41.732Z,2.88
2023-04-21T00:09:09.165Z,2.70
2023-04-21T00:11:36.924Z,3.38
2023-04-21T00:14:04.155Z,3.30
2023-04-21T00:16:31.826Z,2.30
2023-04-21T00:18:59.471Z,2.90
2023-04-21T00:21:27.053Z,2.92
2023-04-21T00:23:54.292Z,2.90
2023-04-21T00:26:21.807Z,2.63
2023-04-21T00:28:50.733Z,2.92
2023-04-21T00:31:18.279Z,2.97
2023-04-21T00:33:45.621Z,2.65
2023-04-21T00:36:13.087Z,3.20
2023-04-21T00:38:40.269Z,2.65
2023-04-21T00:41:09.016Z,3.20
2023-04-21T00:43:58.402Z,2.90
2023-04-21T00:46:26.101Z,2.85
2023-04-21T00:48:53.949Z,3.05
2023-04-21T00:51:21.836Z,3.55
2023-04-21T00:53:50.881Z,4.05
2023-04-21T00:56:19.111Z,4.43
2023-04-21T00:58:46.440Z,2.80
2023-04-21T01:01:14.926Z,3.28
2023-04-21T01:03:47.767Z,2.70
2023-04-21T01:06:15.763Z,2.85
2023-04-21T01:08:44.052Z,2.85
2023-04-21T01:11:12.973Z,3.15
2023-04-21T01:13:41.077Z,3.90
2023-04-21T01:16:08.877Z,3.53
2023-04-21T01:18:37.044Z,2.90
2023-04-21T01:21:06.297Z,3.35
2023-04-21T01:23:35.005Z,8.50
2023-04-21T01:26:02.888Z,5.03
2023-04-21T01:28:30.063Z,3.88
2023-04-21T01:30:57.867Z,3.33
2023-04-21T01:33:25.518Z,3.65
2023-04-21T01:35:53.015Z,3.25
2023-04-21T01:38:20.387Z,3.40
2023-04-21T01:40:51.399Z,3.42
2023-04-21T01:43:21.191Z,3.17
2023-04-21T01:45:48.767Z,3.30
2023-04-21T01:48:16.111Z,3.40
2023-04-21T01:50:43.764Z,3.47
2023-04-21T01:53:11.276Z,3.95
2023-04-21T01:55:38.798Z,3.78
2023-04-21T01:58:09.063Z,3.97
2023-04-21T02:00:36.818Z,4.65
2023-04-21T02:03:05.407Z,3.65
2023-04-21T02:05:33.139Z,3.97
2023-04-21T02:08:00.560Z,3.42
2023-04-21T02:10:28.075Z,3.50
2023-04-21T02:12:55.508Z,3.97
2023-04-21T02:15:23.054Z,4.15
2023-04-21T02:17:50.280Z,4.65
2023-04-21T02:20:17.885Z,4.07
2023-04-21T02:22:45.134Z,3.97
2023-04-21T02:25:12.722Z,4.00
2023-04-21T02:27:39.963Z,3.70
2023-04-21T02:30:07.991Z,4.22
2023-04-21T02:32:35.459Z,3.40
2023-04-21T02:35:05.535Z,4.15
2023-04-21T02:37:32.773Z,3.85
2023-04-21T02:40:00.332Z,3.63
2023-04-21T02:42:27.466Z,4.07
2023-04-21T02:44:54.961Z,3.67
2023-04-21T02:47:22.237Z,4.95
2023-04-21T02:49:49.761Z,4.57
2023-04-21T02:52:16.990Z,4.57
2023-04-21T02:54:44.455Z,4.57
2023-04-21T02:57:11.724Z,4.15
2023-04-21T02:59:40.572Z,4.13
2023-04-21T03:02:07.916Z,4.90
2023-04-21T03:04:39.472Z,4.18
2023-04-21T03:07:11.990Z,4.80
2023-04-21T03:09:40.713Z,3.92
2023-04-21T03:12:08.013Z,4.22
2023-04-21T03:14:36.817Z,3.88
2023-04-21T03:17:04.007Z,4.18
2023-04-21T03:19:33.221Z,4.10
2023-04-21T03:22:00.460Z,3.55
2023-04-21T03:24:28.313Z,4.00
2023-04-21T03:26:57.054Z,3.60
2023-04-21T03:29:24.779Z,3.88
2023-04-21T03:31:51.978Z,3.95
2023-04-21T03:34:19.748Z,4.18
2023-04-21T03:36:47.162Z,4.75
2023-04-21T03:39:20.030Z,4.25
2023-04-21T03:41:48.911Z,4.13
2023-04-21T03:44:16.370Z,3.60
2023-04-21T03:46:43.546Z,4.43
2023-04-21T03:49:11.208Z,4.65
2023-04-21T03:51:38.374Z,4.43
2023-04-21T03:54:06.087Z,5.20
2023-04-21T03:56:33.242Z,5.65
2023-04-21T03:59:00.944Z,5.28
2023-04-21T04:01:28.125Z,5.38
2023-04-21T04:03:56.042Z,4.93
2023-04-21T04:06:23.314Z,4.65
2023-04-21T04:08:50.779Z,5.68
2023-04-21T04:11:17.984Z,4.07
2023-04-21T04:13:45.594Z,4.25
2023-04-21T04:16:12.816Z,4.25
2023-04-21T04:18:40.404Z,4.05
2023-04-21T04:21:08.271Z,3.50
2023-04-21T04:23:35.789Z,3.55
2023-04-21T04:26:05.787Z,4.30
2023-04-21T04:28:33.791Z,3.30
2023-04-21T04:31:01.202Z,2.92
2023-04-21T04:33:29.082Z,3.10
2023-04-21T04:35:56.434Z,3.50
2023-04-21T04:38:24.083Z,3.20
2023-04-21T04:40:55.296Z,3.20
2023-04-21T04:43:23.201Z,3.38
2023-04-21T04:45:50.358Z,3.70
2023-04-21T04:48:17.927Z,2.78
2023-04-21T04:50:45.408Z,3.05
2023-04-21T04:53:13.099Z,3.15
2023-04-21T04:55:40.284Z,3.05
2023-04-21T04:58:07.892Z,3.30
2023-04-21T05:00:35.112Z,3.28
2023-04-21T05:03:02.700Z,3.05
2023-04-21T05:05:30.087Z,3.75
2023-04-21T05:07:58.061Z,3.28
2023-04-21T05:10:25.561Z,2.88
2023-04-21T05:12:53.075Z,2.90
2023-04-21T05:15:20.329Z,2.60
2023-04-21T05:17:47.825Z,2.72
2023-04-21T05:20:15.424Z,3.45
2023-04-21T05:22:42.896Z,2.85
2023-04-21T05:25:15.974Z,2.70
2023-04-21T05:27:43.744Z,2.80
2023-04-21T05:30:11.531Z,2.45
2023-04-21T05:32:39.144Z,2.80
2023-04-21T05:35:06.787Z,3.08
2023-04-21T05:37:34.366Z,3.33
2023-04-21T05:40:01.549Z,3.50
2023-04-21T05:42:29.137Z,3.35
2023-04-21T05:44:56.352Z,3.15
2023-04-21T05:47:23.899Z,3.50
2023-04-21T05:49:54.158Z,3.10
2023-04-21T05:52:21.979Z,2.90
2023-04-21T05:54:49.291Z,2.67
2023-04-21T05:57:17.852Z,3.65
2023-04-21T05:59:45.113Z,3.05
2023-04-21T06:02:12.952Z,3.05
2023-04-21T06:04:40.495Z,2.60
2023-04-21T06:07:10.439Z,2.63
2023-04-21T06:09:38.374Z,2.88
2023-04-21T06:12:06.353Z,2.20
2023-04-21T06:14:33.781Z,2.80
2023-04-21T06:17:01.278Z,3.00
2023-04-21T06:19:28.471Z,2.75
2023-04-21T06:21:57.197Z,2.67
2023-04-21T06:24:27.135Z,2.47
2023-04-21T06:26:54.585Z,2.10
2023-04-21T06:29:21.740Z,2.97
2023-04-21T06:31:49.302Z,2.50
2023-04-21T06:34:16.620Z,2.83
2023-04-21T06:36:44.194Z,2.30
2023-04-21T06:39:11.492Z,2.90
2023-04-21T06:41:38.941Z,2.88
2023-04-21T06:44:06.260Z,2.50
2023-04-21T06:46:33.790Z,2.38
2023-04-21T06:49:01.095Z,2.60
2023-04-21T06:51:28.730Z,2.67
2023-04-21T06:53:56.001Z,2.95
2023-04-21T06:56:23.442Z,2.80
2023-04-21T06:58:50.718Z,3.25
2023-04-21T07:01:18.299Z,2.72
2023-04-21T07:03:45.992Z,2.28
2023-04-21T07:06:13.598Z,2.38
2023-04-21T07:08:41.530Z,2.67
2023-04-21T07:11:09.113Z,2.25
2023-04-21T07:13:36.390Z,2.45
2023-04-21T07:16:04.262Z,2.47
2023-04-21T07:18:32.656Z,2.38
2023-04-21T07:21:01.125Z,2.70
2023-04-21T07:23:28.478Z,2.10
2023-04-21T07:25:59.120Z,2.72
2023-04-21T07:28:26.730Z,2.83
2023-04-21T07:30:54.259Z,2.20
2023-04-21T07:33:21.516Z,2.70
2023-04-21T07:35:49.213Z,2.33
2023-04-21T07:38:16.398Z,2.45
2023-04-21T07:40:43.989Z,1.67
2023-04-21T07:43:11.152Z,1.92
2023-04-21T07:45:38.639Z,2.33
2023-04-21T07:48:07.652Z,2.03
2023-04-21T07:50:37.936Z,1.85
2023-04-21T07:53:05.499Z,2.40
2023-04-21T07:55:33.043Z,1.90
2023-04-21T07:58:00.253Z,1.80
2023-04-21T08:00:27.765Z,1.98
2023-04-21T08:02:55.150Z,2.22
2023-04-21T08:05:22.884Z,2.28
2023-04-21T08:07:50.440Z,1.88
2023-04-21T08:10:17.956Z,1.80
2023-04-21T08:12:45.418Z,1.92
2023-04-21T08:15:13.000Z,2.40
2023-04-21T08:17:40.235Z,2.45
2023-04-21T08:20:08.578Z,1.75
2023-04-21T08:22:36.649Z,2.13
2023-04-21T08:25:05.735Z,2.10
2023-04-21T08:27:32.938Z,1.75
2023-04-21T08:30:00.583Z,1.67
2023-04-21T08:32:27.836Z,2.00
2023-04-21T08:34:55.589Z,1.83
2023-04-21T08:37:23.449Z,1.80
2023-04-21T08:39:51.013Z,1.58
2023-04-21T08:42:18.987Z,2.00
2023-04-21T08:44:47.269Z,2.30
2023-04-21T08:47:15.884Z,2.10
2023-04-21T08:49:45.304Z,1.83
2023-04-21T08:52:14.470Z,1.83
2023-04-21T08:54:42.805Z,2.03
2023-04-21T08:57:15.208Z,2.03
2023-04-21T08:59:45.081Z,1.60
2023-04-21T09:02:15.570Z,1.77
2023-04-21T09:04:43.381Z,2.38
2023-04-21T09:07:11.811Z,2.10
2023-04-21T09:09:58.278Z,1.77
2023-04-21T09:12:25.529Z,2.17
2023-04-21T09:14:53.128Z,2.45
2023-04-21T09:17:27.545Z,2.15
2023-04-21T09:19:55.029Z,2.45
2023-04-21T09:22:27.548Z,2.00
2023-04-21T09:25:02.535Z,2.90
2023-04-21T09:27:29.857Z,3.30
2023-04-21T09:30:03.860Z,3.65
2023-04-21T09:32:36.836Z,1.92
2023-04-21T09:35:04.873Z,2.63
2023-04-21T09:37:36.113Z,1.70
2023-04-21T09:40:05.156Z,2.17
2023-04-21T09:42:35.467Z,1.88
2023-04-21T09:47:40.499Z,2.10
2023-04-21T09:50:12.538Z,1.98
2023-04-21T09:52:42.170Z,2.03
2023-04-21T09:55:13.658Z,1.67
2023-04-21T09:57:43.098Z,1.58
2023-04-21T10:00:12.538Z,2.13
2023-04-21T10:02:45.466Z,1.80
2023-04-21T10:05:13.157Z,2.10
2023-04-21T10:07:40.574Z,1.83
2023-04-21T10:10:16.787Z,1.98
2023-04-21T10:12:44.846Z,1.80
2023-04-21T10:15:31.818Z,1.92
2023-04-21T10:18:21.824Z,2.00
2023-04-21T10:21:09.017Z,1.70
2023-04-21T10:23:37.622Z,1.95
2023-04-21T10:26:07.688Z,1.40
2023-04-21T10:28:55.127Z,1.70
2023-04-21T10:31:27.191Z,1.92
2023-04-21T10:34:07.501Z,1.75
2023-04-21T10:36:47.316Z,2.42
2023-04-21T10:39:53.252Z,1.75
2023-04-21T10:42:28.419Z,1.52
2023-04-21T10:44:58.590Z,2.85
2023-04-21T10:47:29.517Z,1.75
2023-04-21T10:49:58.290Z,1.88
2023-04-21T10:52:35.947Z,2.03
2023-04-21T10:55:10.682Z,1.85
2023-04-21T10:57:43.359Z,1.55
2023-04-21T11:00:12.560Z,1.92
2023-04-21T11:02:42.545Z,2.17
2023-04-21T11:05:11.785Z,1.65
2023-04-21T11:07:39.585Z,1.80
2023-04-21T11:10:08.498Z,1.35
2023-04-21T11:12:40.491Z,1.77
2023-04-21T11:15:13.318Z,1.85
2023-04-21T11:17:43.581Z,1.77
2023-04-21T11:20:11.306Z,3.03
2023-04-21T11:22:39.071Z,1.60
2023-04-21T11:25:16.409Z,1.60
2023-04-21T11:27:53.914Z,1.70
2023-04-21T11:30:21.542Z,2.13
2023-04-21T11:32:56.098Z,1.55
2023-04-21T11:35:23.467Z,1.92
2023-04-21T11:37:52.198Z,2.03
2023-04-21T11:40:19.678Z,1.77
2023-04-21T11:42:47.209Z,1.58
2023-04-21T11:45:22.255Z,2.10
2023-04-21T11:47:50.363Z,1.45
2023-04-21T11:50:34.313Z,1.83
2023-04-21T11:53:02.996Z,2.13
2023-04-21T11:55:30.273Z,1.63
2023-04-21T11:57:57.958Z,1.98
2023-04-21T12:00:31.426Z,1.70
2023-04-21T12:02:59.159Z,2.17
2023-04-21T12:05:35.997Z,1.52
2023-04-21T12:08:06.526Z,1.80
2023-04-21T12:10:34.012Z,1.75
2023-04-21T12:13:01.952Z,1.98
2023-04-21T12:15:30.571Z,1.90
2023-04-21T12:17:58.134Z,1.90
2023-04-21T12:20:28.514Z,1.67
2023-04-21T12:22:56.664Z,1.98
2023-04-21T12:25:25.256Z,2.08
2023-04-21T12:27:54.475Z,1.85
2023-04-21T12:30:22.039Z,1.30
2023-04-21T12:32:49.477Z,1.67
2023-04-21T12:35:17.208Z,1.92
2023-04-21T12:37:45.143Z,1.80
2023-04-21T12:40:12.720Z,1.38
2023-04-21T12:42:39.923Z,1.63
2023-04-21T12:45:07.949Z,2.30
2023-04-21T12:47:37.161Z,2.45
2023-04-21T12:50:05.447Z,2.60
2023-04-21T12:52:32.612Z,1.70
2023-04-21T12:55:00.171Z,1.70
2023-04-21T12:57:27.535Z,1.33
2023-04-21T12:59:56.030Z,2.50
2023-04-21T13:02:23.412Z,2.00
2023-04-21T13:04:51.032Z,1.40
2023-04-21T13:07:21.383Z,1.70
2023-04-21T13:09:48.968Z,1.70
2023-04-21T13:12:16.513Z,2.25
2023-04-21T13:14:44.119Z,2.00
2023-04-21T13:17:11.429Z,1.35
2023-04-21T13:19:38.973Z,1.60
2023-04-21T13:22:06.149Z,1.48
2023-04-21T13:24:34.070Z,1.85
2023-04-21T13:27:04.452Z,1.60
2023-04-21T13:29:34.528Z,2.10
2023-04-21T13:32:03.308Z,1.65
2023-04-21T13:34:33.428Z,1.70
2023-04-21T13:37:01.726Z,1.67
2023-04-21T13:39:29.420Z,2.28
2023-04-21T13:41:56.796Z,1.80
2023-04-21T13:44:24.558Z,2.40
2023-04-21T13:46:53.963Z,1.95
2023-04-21T13:49:21.536Z,1.83
2023-04-21T13:51:48.892Z,1.77
2023-04-21T13:54:16.575Z,1.17
2023-04-21T13:56:43.847Z,1.67
2023-04-21T13:59:11.396Z,1.17
2023-04-21T14:01:38.753Z,1.42
2023-04-21T14:04:07.003Z,1.40
2023-04-21T14:06:34.430Z,1.20
2023-04-21T14:09:01.953Z,1.50
2023-04-21T14:11:29.302Z,1.23
2023-04-21T14:14:09.149Z,1.00
2023-04-21T14:16:38.714Z,1.33
2023-04-21T14:19:06.973Z,1.05
2023-04-21T14:21:34.792Z,0.60
2023-04-21T14:24:02.504Z,0.60
2023-04-21T14:26:29.808Z,0.43
2023-04-21T14:28:57.353Z,0.55
2023-04-21T14:31:24.855Z,0.68
2023-04-21T14:33:52.427Z,0.40
2023-04-21T14:36:19.686Z,0.40
2023-04-21T14:38:47.249Z,0.65
2023-04-21T14:41:14.714Z,0.40
2023-04-21T14:43:42.229Z,0.35
2023-04-21T14:46:09.569Z,0.60
2023-04-21T14:48:37.108Z,0.45
2023-04-21T14:51:06.193Z,0.70
2023-04-21T14:53:33.778Z,0.47
2023-04-21T14:56:01.005Z,0.25
2023-04-21T14:58:28.552Z,0.35
2023-04-21T15:00:56.445Z,0.63
2023-04-21T15:03:24.297Z,0.40
2023-04-21T15:05:51.813Z,0.40
2023-04-21T15:08:19.516Z,0.30
2023-04-21T15:10:47.727Z,0.43
2023-04-21T15:13:15.326Z,0.30
2023-04-21T15:15:42.706Z,0.20
2023-04-21T15:18:10.648Z,0.50
2023-04-21T15:20:45.380Z,0.20
2023-04-21T15:23:13.538Z,0.30
2023-04-21T15:25:40.963Z,0.15
2023-04-21T15:28:08.825Z,0.22
2023-04-21T15:30:36.251Z,0.30
2023-04-21T15:33:03.940Z,0.45
2023-04-21T15:35:31.242Z,0.45
2023-04-21T15:37:58.806Z,0.30
2023-04-21T15:40:26.282Z,0.22
2023-04-21T15:42:53.981Z,0.20
2023-04-21T15:45:21.262Z,0.10
2023-04-21T15:47:48.825Z,0.20
2023-04-21T15:50:16.361Z,0.10
2023-04-21T15:52:44.421Z,0.30
2023-04-21T15:55:12.228Z,0.30
2023-04-21T15:57:39.881Z,0.13
2023-04-21T16:00:10.621Z,0.20
2023-04-21T16:02:38.434Z,0.30
2023-04-21T16:05:06.452Z,0.17
2023-04-21T16:07:34.262Z,0.20
2023-04-21T16:10:01.457Z,0.20
2023-04-21T16:12:29.055Z,0.20
2023-04-21T16:15:04.023Z,0.20
2023-04-21T16:17:37.326Z,0.50
2023-04-21T16:20:05.776Z,0.28
2023-04-21T16:22:33.473Z,0.32
2023-04-21T16:25:01.798Z,0.98
2023-04-21T16:27:29.434Z,0.70
2023-04-21T16:29:56.779Z,0.25
2023-04-21T16:32:24.500Z,0.20
2023-04-21T16:34:51.984Z,0.60
2023-04-21T16:37:19.637Z,0.32
2023-04-21T16:39:46.847Z,0.60
2023-04-21T16:42:14.443Z,0.43
2023-04-21T16:44:41.779Z,0.30
2023-04-21T16:47:09.352Z,0.50
2023-04-21T16:49:36.669Z,0.57
2023-04-21T16:52:04.199Z,0.32
2023-04-21T16:54:31.507Z,0.40
2023-04-21T16:56:59.024Z,0.52
2023-04-21T16:59:26.201Z,0.30
2023-04-21T17:01:53.750Z,0.30
2023-04-21T17:04:21.140Z,0.20
2023-04-21T17:06:48.703Z,0.28
2023-04-21T17:09:16.198Z,0.30
2023-04-21T17:11:45.955Z,0.20
2023-04-21T17:14:13.214Z,0.50
2023-04-21T17:16:40.918Z,0.40
2023-04-21T17:19:08.114Z,0.40
2023-04-21T17:21:35.968Z,0.30
2023-04-21T17:24:03.242Z,0.20
2023-04-21T17:26:30.824Z,0.30
2023-04-21T17:28:58.044Z,0.28
2023-04-21T17:31:29.427Z,0.57
2023-04-21T17:33:57.398Z,0.52
2023-04-21T17:36:27.602Z,0.40
2023-04-21T17:38:55.712Z,0.40
2023-04-21T17:41:26.687Z,0.40
2023-04-21T17:43:57.215Z,0.40
2023-04-21T17:46:25.483Z,0.60
2023-04-21T17:48:52.822Z,0.60
2023-04-21T17:51:20.514Z,0.40
2023-04-21T17:53:47.733Z,0.40
2023-04-21T17:56:15.227Z,0.50
2023-04-21T17:58:42.501Z,0.55
2023-04-21T18:01:10.012Z,0.50
2023-04-21T18:03:37.942Z,0.40
2023-04-21T18:06:05.889Z,0.63
2023-04-21T18:08:33.163Z,0.47
2023-04-21T18:11:00.867Z,0.60
2023-04-21T18:13:28.081Z,0.70
2023-04-21T18:15:55.699Z,0.55
2023-04-21T18:18:23.001Z,0.57
2023-04-21T18:20:50.612Z,0.38
2023-04-21T18:23:17.799Z,0.50
2023-04-21T18:25:47.002Z,0.70
2023-04-21T18:28:14.480Z,0.50
2023-04-21T18:30:42.322Z,0.85
2023-04-21T18:33:11.786Z,0.85
2023-04-21T18:35:41.256Z,0.73
2023-04-21T18:38:10.583Z,0.70
2023-04-21T18:40:38.220Z,0.70
2023-04-21T18:43:05.614Z,0.73
2023-04-21T18:45:34.064Z,0.77
2023-04-21T18:48:01.381Z,1.02
2023-04-21T18:50:29.077Z,0.50
2023-04-21T18:52:56.502Z,0.70
2023-04-21T18:55:24.059Z,0.70
2023-04-21T18:57:51.320Z,0.52
2023-04-21T19:00:19.172Z,0.45
2023-04-21T19:02:48.868Z,0.50
2023-04-21T19:05:17.104Z,0.45
2023-04-21T19:07:44.389Z,0.73
2023-04-21T19:10:11.996Z,0.73
2023-04-21T19:12:39.596Z,0.68
2023-04-21T19:15:07.692Z,0.63
2023-04-21T19:17:35.009Z,0.70
2023-04-21T19:20:02.713Z,0.73
2023-04-21T19:22:32.077Z,0.90
2023-04-21T19:25:00.956Z,0.68
2023-04-21T19:27:30.076Z,0.77
2023-04-21T19:29:58.822Z,0.65
2023-04-21T19:32:26.403Z,1.15
2023-04-21T19:34:54.062Z,1.00
2023-04-21T19:37:21.477Z,1.10
2023-04-21T19:39:48.999Z,1.63
2023-04-21T19:42:16.212Z,1.58
2023-04-21T19:44:43.893Z,1.73
2023-04-21T19:47:11.172Z,1.20
2023-04-21T19:49:38.692Z,1.10
2023-04-21T19:52:06.137Z,1.75
2023-04-21T19:54:33.669Z,2.13
2023-04-21T19:57:01.800Z,1.10
2023-04-21T19:59:29.288Z,1.90
2023-04-21T20:01:56.866Z,1.77
2023-04-21T20:04:24.562Z,1.92
2023-04-21T20:06:52.030Z,2.13
2023-04-21T20:09:19.519Z,2.17
2023-04-21T20:11:46.862Z,1.88
2023-04-21T20:14:14.353Z,2.53
2023-04-21T20:16:43.083Z,2.40
2023-04-21T20:19:11.554Z,2.25
2023-04-21T20:21:39.202Z,2.33
2023-04-21T20:24:08.639Z,2.58
2023-04-21T20:26:37.003Z,1.70
2023-04-21T20:29:04.512Z,2.10
2023-04-21T20:31:31.880Z,2.05
2023-04-21T20:33:59.362Z,2.15
2023-04-21T20:36:27.654Z,1.85
2023-04-21T20:38:57.675Z,1.63
2023-04-21T20:41:24.853Z,1.67
2023-04-21T20:43:52.924Z,2.00
2023-04-21T20:46:20.190Z,1.60
2023-04-21T20:48:47.688Z,1.88
2023-04-21T20:51:14.861Z,1.80
2023-04-21T20:53:42.376Z,1.63
2023-04-21T20:56:09.575Z,1.75
2023-04-21T20:58:37.119Z,1.60
2023-04-21T21:01:04.407Z,1.40
2023-04-21T21:03:32.168Z,1.23
2023-04-21T21:05:59.509Z,1.27
2023-04-21T21:08:28.119Z,1.30
2023-04-21T21:10:55.442Z,1.40
2023-04-21T21:13:22.971Z,1.40
2023-04-21T21:15:50.300Z,1.33
2023-04-21T21:18:17.865Z,1.38
2023-04-21T21:20:45.167Z,1.58
2023-04-21T21:23:12.796Z,1.42
2023-04-21T21:25:40.064Z,1.40
2023-04-21T21:28:07.537Z,1.52
2023-04-21T21:30:34.827Z,1.20
2023-04-21T21:33:02.432Z,1.30
2023-04-21T21:35:29.600Z,1.40
2023-04-21T21:37:57.277Z,1.38
2023-04-21T21:40:24.474Z,1.35
2023-04-21T21:42:51.954Z,1.20
2023-04-21T21:45:19.164Z,1.27
2023-04-21T21:47:46.711Z,1.30
2023-04-21T21:50:13.891Z,0.98
2023-04-21T21:52:41.443Z,1.30
2023-04-21T21:55:09.087Z,1.15
2023-04-21T21:57:37.019Z,1.05
2023-04-21T22:00:08.237Z,1.33
2023-04-21T22:02:36.332Z,1.23
2023-04-21T22:05:06.357Z,1.08
2023-04-21T22:07:35.448Z,1.27
2023-04-21T22:10:03.740Z,0.93
2023-04-21T22:12:33.060Z,1.40
2023-04-21T22:15:00.411Z,0.98
2023-04-21T22:17:29.573Z,1.23
2023-04-21T22:19:57.841Z,1.10
2023-04-21T22:22:25.396Z,0.90
2023-04-21T22:24:52.633Z,0.75
2023-04-21T22:27:20.093Z,0.90
2023-04-21T22:29:47.295Z,1.08
2023-04-21T22:32:15.217Z,1.00
2023-04-21T22:34:42.453Z,0.90
2023-04-21T22:37:10.327Z,0.80
2023-04-21T22:39:38.604Z,1.20
2023-04-21T22:42:06.962Z,1.30
2023-04-21T22:44:34.256Z,1.10
2023-04-21T22:47:01.815Z,1.00
2023-04-21T22:49:29.227Z,1.00
2023-04-21T22:51:56.792Z,1.00
2023-04-21T22:54:23.964Z,0.80
2023-04-21T22:56:51.821Z,0.95
2023-04-21T22:59:19.058Z,0.70
2023-04-21T23:01:46.557Z,0.88
2023-04-21T23:04:14.049Z,0.90
2023-04-21T23:06:43.652Z,0.90
2023-04-21T23:09:11.243Z,0.93
2023-04-21T23:11:38.740Z,0.90
2023-04-21T23:14:05.939Z,0.90
2023-04-21T23:16:33.419Z,0.65
2023-04-21T23:19:00.716Z,0.82
2023-04-21T23:21:28.779Z,0.85
2023-04-21T23:23:55.970Z,1.10
2023-04-21T23:26:23.525Z,1.10
2023-04-21T23:28:50.732Z,1.13
2023-04-21T23:31:18.283Z,1.33
2023-04-21T23:33:45.578Z,1.42
2023-04-21T23:36:13.168Z,1.70
2023-04-21T23:38:40.401Z,1.92
2023-04-21T23:41:07.865Z,1.73
2023-04-21T23:43:37.206Z,2.47
2023-04-21T23:46:04.761Z,2.30
2023-04-21T23:48:32.115Z,2.90
2023-04-21T23:50:59.745Z,2.60
2023-04-21T23:53:27.125Z,2.60
2023-04-21T23:55:54.725Z,2.55
2023-04-21T23:58:22.014Z,3.35
